Vestmannaeyjar, Iceland
Current Conditions -  °F | °C
As of 5:00 PM on Tuesday 21 Oct 2014 (Local Time) from BIRK Reporting Station
Scattered Clouds Scattered Clouds  
Wind Chill: 26°   Ceiling: Unl
Heat Index: 32°   Visibility: 6mi
Dew Point: 23°   Wind: 7mph
Humidity: 69%   Direction: 100°E
Pressure: 29.62"   Gusts: NA
Location:  63.44°N, 20.27°W
Report Text: BIRK 211700Z 10006KT 9999 SCT045 SCT055 M00/M05 Q1003
Loading
Personal Weather Stations






























Interactive Weather Map
Tropical Storm Tracking
New forecast layout! Learn more

10-Day Weather Forecast

Advertisements
Track Severe Weather on mobile